Time;durP1;ratioP1;P1;durP2;ratioP2;P2;SDS_P1;SDS_P2;PMS_P1;PMS_P2;Temp;Humidity;BMP_temperature;BMP_pressure;BME280_temperature;BME280_humidity;BME280_pressure;Samples;Min_cycle;Max_cycle;Signal;HPM_P1;HPM_P2
2020/12/12 00:00:43;;;;;;;44.40;24.30;;;2.20;99.90;;;;;;5038051;28;20134;-89
2020/12/12 00:03:09;;;;;;;41.55;23.67;;;2.30;99.90;;;;;;5038260;28;20574;-89
2020/12/12 00:05:34;;;;;;;47.13;24.30;;;2.30;99.90;;;;;;5037781;28;20439;-89
2020/12/12 00:08:02;;;;;;;49.60;26.30;;;2.30;99.90;;;;;;5054968;28;20028;-89
2020/12/12 00:10:28;;;;;;;48.20;25.88;;;2.40;99.90;;;;;;5055606;28;20025;-89
2020/12/12 00:12:54;;;;;;;46.35;24.90;;;2.20;99.90;;;;;;5054947;28;20027;-89
2020/12/12 00:15:19;;;;;;;44.97;24.98;;;2.10;99.90;;;;;;5037622;28;20037;-89
2020/12/12 00:17:45;;;;;;;43.65;23.73;;;2.10;99.90;;;;;;5054397;28;20029;-89
2020/12/12 00:20:12;;;;;;;49.08;25.00;;;2.30;99.90;;;;;;5072068;28;20020;-89
2020/12/12 00:22:38;;;;;;;43.53;23.73;;;2.30;99.90;;;;;;5038397;28;20029;-89
2020/12/12 00:25:05;;;;;;;50.80;25.30;;;2.40;99.90;;;;;;5037396;28;20381;-89
2020/12/12 00:27:30;;;;;;;42.50;23.88;;;2.50;99.90;;;;;;5037664;28;20485;-89
2020/12/12 00:29:56;;;;;;;44.30;24.00;;;2.40;99.90;;;;;;5037898;28;20031;-89
2020/12/12 00:32:22;;;;;;;43.15;22.80;;;2.40;99.90;;;;;;5038792;28;20024;-89
2020/12/12 00:34:47;;;;;;;43.35;22.85;;;2.40;99.90;;;;;;5037188;28;20028;-89
2020/12/12 00:37:13;;;;;;;47.58;24.17;;;2.40;99.90;;;;;;5054459;28;20032;-89
2020/12/12 00:39:39;;;;;;;43.88;23.30;;;2.40;99.90;;;;;;5054657;28;20016;-89
2020/12/12 00:42:06;;;;;;;44.35;24.48;;;2.40;99.90;;;;;;5054935;28;20070;-89
2020/12/12 00:44:31;;;;;;;42.67;23.58;;;2.50;99.90;;;;;;5054014;28;20020;-89
2020/12/12 00:46:58;;;;;;;50.38;24.23;;;2.40;99.90;;;;;;5038313;28;20541;-89
2020/12/12 00:49:23;;;;;;;39.55;21.95;;;2.40;99.90;;;;;;5038278;28;20119;-89
2020/12/12 00:51:49;;;;;;;41.17;23.35;;;2.40;99.90;;;;;;5037867;28;20113;-89
2020/12/12 00:54:15;;;;;;;37.53;22.02;;;2.50;99.90;;;;;;5038833;28;20090;-89
2020/12/12 00:56:40;;;;;;;45.83;24.95;;;2.50;99.90;;;;;;5039346;28;20025;-88
2020/12/12 00:59:06;;;;;;;37.78;21.10;;;2.60;99.90;;;;;;5039053;28;20025;-88
2020/12/12 01:01:31;;;;;;;40.72;22.05;;;2.70;99.90;;;;;;5039283;28;20082;-88
2020/12/12 01:03:57;;;;;;;38.22;22.55;;;2.80;99.90;;;;;;5051522;28;20058;-89
2020/12/12 01:06:23;;;;;;;41.05;22.55;;;2.80;99.90;;;;;;5063167;28;20016;-90
2020/12/12 01:08:48;;;;;;;35.40;21.13;;;2.90;99.90;;;;;;5055938;28;20032;-90
2020/12/12 01:11:15;;;;;;;42.53;24.52;;;2.90;99.90;;;;;;5054938;28;20058;-91
2020/12/12 01:13:41;;;;;;;40.65;23.15;;;2.80;99.90;;;;;;5057340;28;20024;-90
2020/12/12 01:16:15;;;;;;;39.95;22.48;;;2.70;99.90;;;;;;5054119;28;20062;-89
2020/12/12 01:18:41;;;;;;;39.58;22.00;;;2.60;99.90;;;;;;5069958;28;20029;-91
2020/12/12 01:21:08;;;;;;;36.33;21.20;;;2.70;99.90;;;;;;5056388;28;20112;-90
2020/12/12 01:23:33;;;;;;;35.70;21.52;;;2.60;99.90;;;;;;5055803;28;20458;-91
2020/12/12 01:25:59;;;;;;;37.03;20.63;;;2.70;99.90;;;;;;5038256;28;20107;-89
2020/12/12 01:28:25;;;;;;;38.20;22.35;;;2.80;99.90;;;;;;5054823;28;20028;-90
2020/12/12 01:30:53;;;;;;;36.92;21.35;;;2.80;99.90;;;;;;5038871;28;20020;-90
2020/12/12 01:33:22;;;;;;;41.38;22.77;;;2.80;99.90;;;;;;5038266;28;20032;-90
2020/12/12 01:35:48;;;;;;;36.08;21.10;;;2.80;99.90;;;;;;5037776;28;20033;-90
2020/12/12 01:38:14;;;;;;;40.75;21.33;;;2.90;99.90;;;;;;5041649;28;20024;-90
2020/12/12 01:40:40;;;;;;;38.45;20.63;;;2.80;99.90;;;;;;5041486;28;20031;-90
2020/12/12 01:43:07;;;;;;;37.42;19.55;;;2.80;99.90;;;;;;5041641;28;20016;-90
2020/12/12 01:45:33;;;;;;;36.67;20.40;;;2.70;99.90;;;;;;5041002;28;20035;-90
2020/12/12 01:47:59;;;;;;;32.55;17.98;;;2.70;99.90;;;;;;5041991;28;20028;-90
2020/12/12 01:50:26;;;;;;;33.05;18.83;;;2.80;99.90;;;;;;5041631;28;20028;-90
2020/12/12 01:52:52;;;;;;;33.63;19.77;;;2.60;99.90;;;;;;5041711;28;20388;-90
2020/12/12 01:55:21;;;;;;;39.35;19.90;;;2.70;99.90;;;;;;5039996;28;20064;-90
2020/12/12 01:57:48;;;;;;;34.90;20.20;;;2.60;99.90;;;;;;5040781;28;20029;-90
2020/12/12 02:00:14;;;;;;;38.58;19.70;;;2.60;99.90;;;;;;5057244;28;20020;-90
2020/12/12 02:02:49;;;;;;;32.55;19.67;;;2.60;99.90;;;;;;5041165;28;20460;-89
2020/12/12 02:05:42;;;;;;;34.55;19.10;;;2.60;99.90;;;;;;5057568;28;20431;-89
2020/12/12 02:08:12;;;;;;;38.72;18.95;;;2.60;99.90;;;;;;5041938;28;20471;-90
2020/12/12 02:10:41;;;;;;;38.53;20.55;;;2.80;99.90;;;;;;5056934;28;20574;-90
2020/12/12 02:13:09;;;;;;;36.28;20.40;;;2.90;99.90;;;;;;5040975;28;20032;-90
2020/12/12 02:15:35;;;;;;;33.72;19.42;;;2.90;99.90;;;;;;5039790;28;20036;-90
2020/12/12 02:18:02;;;;;;;36.55;18.65;;;2.90;99.90;;;;;;5040366;28;20052;-90
2020/12/12 02:20:28;;;;;;;34.25;19.50;;;3.00;99.90;;;;;;5039639;28;20039;-90
2020/12/12 02:22:55;;;;;;;31.02;18.35;;;2.90;99.90;;;;;;5039801;28;20021;-89
2020/12/12 02:25:21;;;;;;;31.17;18.40;;;2.90;99.90;;;;;;5039836;28;20024;-90
2020/12/12 02:27:49;;;;;;;33.92;19.38;;;2.90;99.90;;;;;;5039899;28;20029;-90
2020/12/12 02:30:15;;;;;;;32.42;19.35;;;2.70;99.90;;;;;;5056474;28;20021;-90
2020/12/12 02:32:40;;;;;;;34.53;18.83;;;2.70;99.90;;;;;;5039616;28;20082;-89
2020/12/12 02:35:06;;;;;;;35.60;20.10;;;2.60;99.90;;;;;;5039695;28;20032;-89
2020/12/12 02:37:32;;;;;;;33.35;17.83;;;2.40;99.90;;;;;;5056090;28;20108;-90
2020/12/12 02:39:58;;;;;;;30.95;19.17;;;2.40;99.90;;;;;;5056065;28;20409;-89
2020/12/12 02:42:24;;;;;;;34.08;19.98;;;2.50;99.90;;;;;;5056055;28;20043;-89
2020/12/12 02:44:51;;;;;;;34.28;19.10;;;2.40;99.90;;;;;;5039244;28;20070;-90
2020/12/12 02:47:17;;;;;;;31.98;18.23;;;2.30;99.90;;;;;;5056125;28;20393;-90
2020/12/12 02:49:43;;;;;;;34.28;19.15;;;2.30;99.90;;;;;;5039108;28;20069;-90
2020/12/12 02:52:09;;;;;;;31.90;19.27;;;2.50;99.90;;;;;;5040339;28;20024;-90
2020/12/12 02:54:34;;;;;;;33.83;19.55;;;2.60;99.90;;;;;;5038713;28;20017;-90
2020/12/12 02:57:00;;;;;;;35.67;20.30;;;2.60;99.90;;;;;;5039395;28;20094;-90
2020/12/12 02:59:26;;;;;;;35.38;20.60;;;2.70;99.90;;;;;;5038780;28;20024;-90
2020/12/12 03:01:51;;;;;;;38.05;21.13;;;2.50;99.90;;;;;;5039706;28;20021;-90
2020/12/12 03:04:17;;;;;;;35.50;19.90;;;2.40;99.90;;;;;;5038310;28;20490;-91
2020/12/12 03:06:44;;;;;;;39.05;21.48;;;2.40;99.90;;;;;;5038825;28;20390;-90
2020/12/12 03:09:10;;;;;;;37.47;21.55;;;2.50;99.90;;;;;;5038741;28;20029;-89
2020/12/12 03:11:36;;;;;;;48.85;22.63;;;2.30;99.90;;;;;;5055893;28;20035;-90
2020/12/12 03:14:02;;;;;;;37.58;22.33;;;2.20;99.90;;;;;;5037668;28;20024;-90
2020/12/12 03:16:28;;;;;;;41.33;22.80;;;2.30;99.90;;;;;;5038409;28;20028;-89
2020/12/12 03:18:53;;;;;;;40.72;21.65;;;2.40;99.90;;;;;;5038573;28;20020;-89
2020/12/12 03:21:19;;;;;;;38.55;22.17;;;2.50;99.90;;;;;;5038738;28;20012;-90
2020/12/12 03:23:45;;;;;;;43.13;22.88;;;2.50;99.90;;;;;;5055321;28;20427;-90
2020/12/12 03:26:10;;;;;;;41.08;23.38;;;2.50;99.90;;;;;;5038046;28;20016;-89
2020/12/12 03:28:36;;;;;;;37.55;21.35;;;2.50;99.90;;;;;;5038637;28;20024;-90
2020/12/12 03:31:02;;;;;;;39.70;23.58;;;2.50;99.90;;;;;;5038611;28;20047;-89
2020/12/12 03:33:27;;;;;;;41.30;22.60;;;2.50;99.90;;;;;;5038398;28;20040;-90
2020/12/12 03:35:53;;;;;;;41.67;23.92;;;2.60;99.90;;;;;;5038067;28;20612;-90
2020/12/12 03:38:18;;;;;;;41.97;22.85;;;2.80;99.90;;;;;;5038419;28;20481;-89
2020/12/12 03:40:44;;;;;;;41.92;24.48;;;2.80;99.90;;;;;;5038295;28;20025;-89
2020/12/12 03:43:10;;;;;;;35.58;21.00;;;2.50;99.90;;;;;;5038306;28;20029;-90
2020/12/12 03:45:35;;;;;;;38.13;22.10;;;2.30;99.90;;;;;;5037900;28;20139;-90
2020/12/12 03:48:01;;;;;;;39.53;23.02;;;2.20;99.90;;;;;;5038403;28;20501;-89
2020/12/12 03:50:29;;;;;;;39.35;21.85;;;2.40;99.90;;;;;;5038119;28;20109;-90
2020/12/12 03:52:56;;;;;;;43.03;24.25;;;2.50;99.90;;;;;;5038496;28;20075;-90
2020/12/12 03:55:22;;;;;;;43.75;23.70;;;2.40;99.90;;;;;;5054608;28;20104;-89
2020/12/12 03:57:48;;;;;;;43.58;23.85;;;2.40;99.90;;;;;;5038449;28;20381;-90
2020/12/12 04:00:14;;;;;;;39.67;22.88;;;2.60;99.90;;;;;;5054130;28;20023;-90
2020/12/12 04:02:39;;;;;;;43.42;22.40;;;2.80;99.90;;;;;;5038571;28;20402;-90
2020/12/12 04:05:05;;;;;;;44.08;24.13;;;2.70;99.90;;;;;;5043168;28;20022;-90
2020/12/12 04:07:31;;;;;;;41.53;23.90;;;2.70;99.90;;;;;;5047612;28;20025;-90
2020/12/12 04:09:56;;;;;;;41.25;21.63;;;2.80;99.90;;;;;;5038241;28;20401;-89
2020/12/12 04:12:22;;;;;;;39.05;21.52;;;2.70;99.90;;;;;;5037140;28;20033;-90
2020/12/12 04:14:48;;;;;;;36.95;22.95;;;2.60;99.90;;;;;;5053992;28;20085;-89
2020/12/12 04:17:13;;;;;;;39.13;21.83;;;2.60;99.90;;;;;;5037745;28;20031;-90
2020/12/12 04:19:39;;;;;;;48.10;25.27;;;2.40;99.90;;;;;;5037853;28;20021;-90
2020/12/12 04:22:04;;;;;;;41.08;23.48;;;2.40;99.90;;;;;;5037697;28;20017;-90
2020/12/12 04:24:30;;;;;;;42.60;23.60;;;2.40;99.90;;;;;;5037284;28;20112;-90
2020/12/12 04:26:56;;;;;;;45.47;24.27;;;2.30;99.90;;;;;;5037564;28;20040;-90
2020/12/12 04:29:22;;;;;;;45.70;23.65;;;2.40;99.90;;;;;;5054517;28;20496;-89
2020/12/12 04:31:47;;;;;;;46.47;22.98;;;2.50;99.90;;;;;;5037404;28;20120;-89
2020/12/12 04:34:13;;;;;;;43.53;24.33;;;2.50;99.90;;;;;;5037041;28;20021;-90
2020/12/12 04:36:39;;;;;;;39.10;21.50;;;2.60;99.90;;;;;;5072001;28;20100;-90
2020/12/12 04:39:05;;;;;;;42.47;23.60;;;2.50;99.90;;;;;;5037377;28;20489;-90
2020/12/12 04:41:33;;;;;;;40.50;23.33;;;2.40;99.90;;;;;;5053888;28;20715;-89
2020/12/12 04:43:59;;;;;;;42.25;23.63;;;2.40;99.90;;;;;;5037252;28;20029;-90
2020/12/12 04:46:26;;;;;;;43.15;23.08;;;2.60;99.90;;;;;;5053500;28;20409;-90
2020/12/12 04:48:52;;;;;;;38.28;21.25;;;2.60;99.90;;;;;;5037422;28;20033;-90
2020/12/12 04:51:18;;;;;;;38.33;22.33;;;2.60;99.90;;;;;;5037308;28;20036;-90
2020/12/12 04:53:44;;;;;;;40.63;22.67;;;2.70;99.90;;;;;;5037207;28;20051;-89
2020/12/12 04:56:21;;;;;;;41.70;22.05;;;2.80;99.90;;;;;;5037258;28;20029;-89
2020/12/12 04:58:49;;;;;;;36.20;19.65;;;2.50;99.90;;;;;;5037093;28;20473;-89
2020/12/12 05:01:17;;;;;;;40.92;21.67;;;2.50;99.90;;;;;;5037249;28;20028;-90
2020/12/12 05:03:44;;;;;;;42.17;21.30;;;2.60;99.90;;;;;;5053839;28;20026;-90
2020/12/12 05:06:10;;;;;;;38.58;21.35;;;2.70;99.90;;;;;;5036644;28;20024;-90
2020/12/12 05:08:35;;;;;;;36.00;20.83;;;2.70;99.90;;;;;;5053917;28;20078;-90
2020/12/12 05:11:02;;;;;;;39.03;22.83;;;2.70;99.90;;;;;;5038224;28;20036;-89
2020/12/12 05:13:30;;;;;;;41.80;22.50;;;2.70;99.90;;;;;;5039984;28;20097;-90
2020/12/12 05:15:57;;;;;;;38.45;22.15;;;2.80;99.90;;;;;;5040993;28;20098;-90
2020/12/12 05:18:24;;;;;;;38.80;21.58;;;2.70;99.90;;;;;;5040834;28;20057;-89
2020/12/12 05:20:50;;;;;;;38.72;20.50;;;2.60;99.90;;;;;;5075423;28;20024;-89
2020/12/12 05:23:19;;;;;;;39.92;20.63;;;2.50;99.90;;;;;;5057591;28;20051;-90
2020/12/12 05:25:46;;;;;;;37.60;21.70;;;2.50;99.90;;;;;;5057471;28;20020;-90
2020/12/12 05:28:15;;;;;;;46.25;21.55;;;2.50;99.90;;;;;;5040747;28;20036;-89
2020/12/12 05:30:45;;;;;;;38.75;20.92;;;2.60;99.90;;;;;;5057533;28;20024;-90
2020/12/12 05:33:13;;;;;;;38.90;20.65;;;2.60;99.90;;;;;;5057492;28;20499;-90
2020/12/12 05:35:39;;;;;;;37.47;20.85;;;2.70;99.90;;;;;;5040573;28;20029;-89
2020/12/12 05:38:07;;;;;;;34.78;19.75;;;2.60;99.90;;;;;;5040532;28;20032;-89
2020/12/12 05:40:35;;;;;;;33.05;20.42;;;2.60;99.90;;;;;;5041400;28;20405;-90
2020/12/12 05:43:10;;;;;;;33.65;19.20;;;2.50;99.90;;;;;;5041222;28;20028;-90
2020/12/12 05:45:37;;;;;;;33.65;18.60;;;2.60;99.90;;;;;;5039837;28;20492;-89
2020/12/12 05:48:07;;;;;;;33.47;19.90;;;2.50;99.90;;;;;;5040718;28;20025;-90
2020/12/12 05:50:33;;;;;;;31.23;19.02;;;2.40;99.90;;;;;;5057298;28;20027;-90
2020/12/12 05:52:59;;;;;;;37.30;21.25;;;2.40;99.90;;;;;;5040557;28;20128;-90
2020/12/12 05:55:31;;;;;;;35.22;20.42;;;2.50;99.90;;;;;;5039921;28;20115;-89
2020/12/12 05:57:58;;;;;;;34.67;19.75;;;2.60;99.90;;;;;;5074740;28;20059;-90
2020/12/12 06:00:25;;;;;;;34.75;20.05;;;2.60;99.90;;;;;;5040368;28;20025;-89
2020/12/12 06:02:57;;;;;;;36.83;19.85;;;2.60;99.90;;;;;;5040168;28;20098;-90
2020/12/12 06:05:28;;;;;;;33.70;18.95;;;2.60;99.90;;;;;;5039648;28;20031;-90
2020/12/12 06:08:02;;;;;;;32.63;18.95;;;2.50;99.90;;;;;;5040405;28;20032;-90
2020/12/12 06:10:33;;;;;;;35.65;19.67;;;2.50;99.90;;;;;;5040528;28;20028;-89
2020/12/12 06:13:03;;;;;;;33.50;18.73;;;2.60;99.90;;;;;;5039199;28;20029;-90
2020/12/12 06:15:35;;;;;;;34.47;18.63;;;2.50;99.90;;;;;;5056290;28;20104;-89
2020/12/12 06:18:09;;;;;;;33.83;20.50;;;2.50;99.90;;;;;;5040209;28;20048;-89
2020/12/12 06:20:38;;;;;;;32.08;18.15;;;2.50;99.90;;;;;;5039860;28;20580;-90
2020/12/12 06:23:06;;;;;;;31.45;18.33;;;2.60;99.90;;;;;;5039143;28;20027;-89
2020/12/12 06:25:31;;;;;;;34.03;18.90;;;2.60;99.90;;;;;;5040035;28;20055;-90
2020/12/12 06:27:58;;;;;;;29.85;17.92;;;2.50;99.90;;;;;;5040000;28;20020;-90
2020/12/12 06:30:26;;;;;;;35.10;19.35;;;2.50;99.90;;;;;;5039626;28;20033;-90
2020/12/12 06:33:00;;;;;;;32.58;19.20;;;2.50;99.90;;;;;;5040031;28;20020;-90
2020/12/12 06:35:36;;;;;;;34.05;19.33;;;2.50;99.90;;;;;;5039040;28;20051;-89
2020/12/12 06:38:20;;;;;;;31.85;18.95;;;2.40;99.90;;;;;;5039688;28;20478;-91
2020/12/12 06:40:47;;;;;;;30.20;18.20;;;2.40;99.90;;;;;;5041091;28;20025;-90
2020/12/12 06:43:49;;;;;;;29.95;16.75;;;2.40;99.90;;;;;;5044234;28;20453;-89
2020/12/12 06:46:18;;;;;;;35.72;21.15;;;2.40;99.90;;;;;;5040387;28;20055;-90
2020/12/12 06:48:43;;;;;;;35.60;19.67;;;2.50;99.90;;;;;;5040033;28;20493;-90
2020/12/12 06:51:09;;;;;;;37.42;20.88;;;2.60;99.90;;;;;;5041016;28;20024;-93
2020/12/12 06:53:35;;;;;;;36.63;21.25;;;2.60;99.90;;;;;;5039589;28;20028;-90
2020/12/12 06:56:15;;;;;;;38.60;19.17;;;2.70;99.90;;;;;;5040728;28;20020;-90
2020/12/12 06:58:44;;;;;;;32.35;19.77;;;2.80;99.90;;;;;;5039125;28;20029;-90
2020/12/12 07:01:50;;;;;;;32.38;18.27;;;2.90;99.90;;;;;;5039825;28;20032;-91
2020/12/12 07:04:32;;;;;;;28.98;16.45;;;2.90;99.90;;;;;;4990009;28;20123;-90
2020/12/12 07:07:05;;;;;;;25.42;15.40;;;3.00;99.90;;;;;;5039315;28;20089;-90
2020/12/12 07:09:57;;;;;;;25.85;14.70;;;3.20;99.90;;;;;;5039709;28;20048;-90
2020/12/12 07:12:24;;;;;;;22.85;13.45;;;3.20;99.90;;;;;;5038242;28;20048;-91
2020/12/12 07:14:50;;;;;;;26.55;14.57;;;3.30;99.90;;;;;;5038862;28;20409;-91
2020/12/12 07:17:16;;;;;;;25.88;15.02;;;3.10;99.90;;;;;;5038966;28;20032;-90
2020/12/12 07:20:13;;;;;;;25.33;14.30;;;3.00;99.90;;;;;;5038911;28;20020;-90
2020/12/12 07:22:50;;;;;;;16.88;9.90;;;3.20;99.90;;;;;;5032976;28;20085;-90
2020/12/12 07:28:59;;;;;;;20.80;10.18;;;3.30;99.90;;;;;;5051781;28;20025;-90
2020/12/12 07:31:27;;;;;;;20.23;11.60;;;3.30;99.90;;;;;;5031354;28;20098;-90
2020/12/12 07:34:48;;;;;;;18.48;12.23;;;3.30;99.90;;;;;;5038115;28;20050;-90
2020/12/12 07:37:14;;;;;;;16.70;10.43;;;3.10;99.90;;;;;;5038849;28;20062;-90
2020/12/12 07:39:43;;;;;;;20.42;11.27;;;3.20;99.90;;;;;;5038474;28;20029;-90
2020/12/12 07:42:10;;;;;;;16.23;9.85;;;3.30;99.90;;;;;;5038286;28;20112;-91
2020/12/12 07:44:39;;;;;;;18.50;10.05;;;3.40;99.90;;;;;;5038388;28;20021;-90
2020/12/12 07:47:07;;;;;;;15.27;9.38;;;3.40;99.90;;;;;;5037776;28;20020;-91
2020/12/12 07:49:35;;;;;;;12.15;7.72;;;3.50;99.90;;;;;;5038838;28;20035;-90
2020/12/12 07:52:04;;;;;;;12.35;7.32;;;3.50;99.90;;;;;;5054951;28;20495;-90
2020/12/12 07:54:32;;;;;;;10.77;6.78;;;3.30;99.90;;;;;;5037703;28;20062;-90
2020/12/12 07:56:57;;;;;;;10.30;7.20;;;3.10;99.90;;;;;;5038026;28;20077;-90
2020/12/12 07:59:23;;;;;;;12.85;7.88;;;3.10;99.90;;;;;;5040189;28;20025;-90
2020/12/12 08:01:49;;;;;;;9.57;6.22;;;3.20;99.90;;;;;;5042349;28;20027;-91
2020/12/12 08:04:22;;;;;;;9.30;5.78;;;3.30;99.90;;;;;;5041356;28;20017;-91
2020/12/12 08:07:11;;;;;;;11.90;7.22;;;3.50;99.90;;;;;;5039640;28;20032;-91
2020/12/12 08:12:34;;;;;;;19.20;11.55;;;3.50;99.90;;;;;;5039419;22;20065;-76
2020/12/12 08:15:05;;;;;;;7.72;5.07;;;3.60;99.90;;;;;;5030931;28;20030;-76
2020/12/12 08:17:33;;;;;;;8.77;4.80;;;3.50;99.90;;;;;;5013336;28;20101;-76
2020/12/12 08:20:01;;;;;;;10.68;4.88;;;3.40;99.90;;;;;;5013669;28;20037;-75
2020/12/12 08:22:27;;;;;;;4.07;3.20;;;3.40;99.90;;;;;;5030856;28;20025;-76
2020/12/12 08:24:54;;;;;;;4.35;2.55;;;3.30;99.90;;;;;;5031369;28;20080;-76
2020/12/12 08:27:25;;;;;;;4.85;2.80;;;3.30;99.90;;;;;;5013642;28;20029;-76
2020/12/12 08:29:56;;;;;;;2.77;2.30;;;3.50;99.90;;;;;;5031122;28;20028;-76
2020/12/12 08:32:28;;;;;;;4.07;2.35;;;3.60;99.90;;;;;;5030782;28;20029;-76
2020/12/12 08:35:21;;;;;;;3.08;2.63;;;3.60;99.90;;;;;;5030989;28;20026;-76
2020/12/12 08:38:08;;;;;;;3.90;2.67;;;3.70;99.90;;;;;;5030942;28;20476;-76
2020/12/12 08:40:43;;;;;;;4.70;3.33;;;4.00;99.90;;;;;;5031177;28;20041;-76
2020/12/12 08:43:10;;;;;;;4.95;2.20;;;4.20;99.90;;;;;;5012800;28;20392;-76
2020/12/12 08:45:53;;;;;;;4.50;2.75;;;4.30;99.90;;;;;;5012709;28;20017;-76
2020/12/12 08:48:19;;;;;;;6.20;3.05;;;4.30;99.90;;;;;;5030580;28;20439;-76
2020/12/12 08:50:58;;;;;;;4.45;1.80;;;4.20;99.90;;;;;;5030572;28;20021;-76
2020/12/12 08:53:34;;;;;;;3.60;2.13;;;3.90;99.90;;;;;;5030474;28;20028;-76
2020/12/12 08:56:21;;;;;;;4.40;2.83;;;3.50;99.90;;;;;;5029167;28;20057;-75
2020/12/12 08:59:17;;;;;;;4.00;2.55;;;3.30;99.90;;;;;;5012806;28;20531;-75
2020/12/12 09:01:43;;;;;;;5.07;3.08;;;3.20;99.90;;;;;;4993387;28;20101;-75
2020/12/12 09:04:09;;;;;;;3.90;2.83;;;3.20;99.90;;;;;;5010521;28;20037;-76
2020/12/12 09:06:46;;;;;;;4.55;2.85;;;3.30;99.90;;;;;;4993276;28;20295;-75
2020/12/12 09:09:20;;;;;;;4.97;2.65;;;3.30;99.90;;;;;;5010709;28;20076;-76
2020/12/12 09:11:52;;;;;;;5.15;3.10;;;3.40;99.90;;;;;;5010684;28;20550;-76
2020/12/12 09:14:18;;;;;;;2.70;1.90;;;3.40;99.90;;;;;;5010632;28;20026;-76
2020/12/12 09:16:48;;;;;;;2.50;2.30;;;3.60;99.90;;;;;;5010897;28;20030;-76
2020/12/12 09:19:14;;;;;;;4.20;2.08;;;3.70;99.90;;;;;;4993482;28;20026;-76
2020/12/12 09:21:40;;;;;;;3.30;2.10;;;3.80;99.90;;;;;;5011379;28;20386;-76
2020/12/12 09:24:06;;;;;;;2.13;1.65;;;4.00;99.90;;;;;;4993910;28;20026;-77
2020/12/12 09:26:31;;;;;;;2.67;2.28;;;4.10;99.90;;;;;;4995057;28;20049;-76
2020/12/12 09:28:57;;;;;;;2.42;1.80;;;4.20;99.90;;;;;;4995797;28;20504;-77
2020/12/12 09:31:24;;;;;;;2.92;1.98;;;4.20;99.90;;;;;;4995898;28;20023;-76
2020/12/12 09:33:50;;;;;;;2.85;1.88;;;4.20;99.90;;;;;;5013334;28;20026;-76
2020/12/12 09:36:16;;;;;;;2.10;1.25;;;4.30;99.90;;;;;;4979449;28;20052;-75
2020/12/12 09:38:42;;;;;;;1.90;1.40;;;4.30;99.90;;;;;;5012276;28;20076;-77
2020/12/12 09:41:08;;;;;;;3.47;1.38;;;4.30;99.90;;;;;;5011298;28;20454;-76
2020/12/12 09:43:33;;;;;;;2.75;1.50;;;4.30;99.90;;;;;;5010621;28;20061;-76
2020/12/12 09:45:59;;;;;;;4.65;1.92;;;4.50;99.90;;;;;;5010186;28;20060;-76
2020/12/12 09:48:25;;;;;;;3.75;1.60;;;4.50;99.90;;;;;;4976891;28;20030;-76
2020/12/12 09:50:51;;;;;;;3.85;1.23;;;4.60;99.90;;;;;;5010586;28;20022;-76
2020/12/12 09:53:17;;;;;;;3.70;1.70;;;4.50;99.90;;;;;;5015537;28;20018;-76
2020/12/12 09:55:42;;;;;;;4.65;2.00;;;4.50;99.90;;;;;;5012067;28;20111;-76
2020/12/12 09:58:08;;;;;;;2.55;2.10;;;4.40;99.90;;;;;;5013352;28;20026;-76
2020/12/12 10:00:39;;;;;;;2.75;2.20;;;4.50;99.90;;;;;;5033523;28;20152;-76
2020/12/12 10:03:05;;;;;;;5.22;2.60;;;4.40;99.90;;;;;;5015887;28;20056;-76
2020/12/12 10:05:32;;;;;;;4.82;3.03;;;4.60;99.90;;;;;;5033339;28;20022;-76
2020/12/12 10:07:59;;;;;;;6.13;3.63;;;4.70;99.90;;;;;;5033172;28;20476;-76
2020/12/12 10:10:26;;;;;;;5.95;3.53;;;4.70;99.90;;;;;;5033233;28;20021;-76
2020/12/12 10:12:53;;;;;;;5.65;3.80;;;4.70;99.90;;;;;;5033256;28;20029;-76
2020/12/12 10:15:19;;;;;;;3.45;2.25;;;4.60;99.90;;;;;;5033191;28;20021;-76
2020/12/12 10:17:46;;;;;;;9.07;3.60;;;4.40;99.90;;;;;;5033170;28;20025;-76
2020/12/12 10:20:12;;;;;;;34.47;4.63;;;4.50;99.90;;;;;;4998843;28;20028;-76
2020/12/12 10:22:39;;;;;;;5.15;2.78;;;4.50;99.90;;;;;;5033066;28;20100;-76
2020/12/12 10:25:06;;;;;;;8.15;2.70;;;4.30;99.90;;;;;;5015590;28;20029;-75
2020/12/12 10:27:33;;;;;;;19.08;3.80;;;4.30;99.90;;;;;;5015419;28;20018;-77
2020/12/12 10:29:58;;;;;;;21.92;4.80;;;4.40;99.90;;;;;;5033324;28;20021;-75
2020/12/12 10:32:24;;;;;;;12.50;3.90;;;4.50;99.90;;;;;;5032759;28;20109;-75
2020/12/12 10:34:50;;;;;;;12.02;3.45;;;4.50;99.90;;;;;;5032028;28;20481;-76
2020/12/12 10:37:15;;;;;;;8.80;3.03;;;4.40;99.90;;;;;;5032540;28;20024;-74
2020/12/12 10:40:08;;;;;;;12.45;5.93;;;4.50;99.90;;;;;;5033181;28;20028;-76
2020/12/12 10:42:30;;;;;;;8.40;5.90;;;4.50;99.90;;;;;;5014292;28;20036;-76
2020/12/12 10:44:56;;;;;;;6.25;3.45;;;4.50;99.90;;;;;;5032801;28;20021;-76
2020/12/12 10:47:22;;;;;;;9.13;3.70;;;4.50;99.90;;;;;;5014844;28;20100;-76
2020/12/12 10:49:48;;;;;;;9.57;3.75;;;4.60;99.90;;;;;;5032543;28;20021;-76
2020/12/12 10:52:13;;;;;;;16.38;3.50;;;4.70;99.90;;;;;;5032422;28;20101;-76
2020/12/12 10:54:40;;;;;;;4.90;3.08;;;5.00;99.90;;;;;;5015174;28;20018;-76
2020/12/12 10:57:06;;;;;;;4.15;2.90;;;5.00;99.90;;;;;;5032462;28;20434;-76
2020/12/12 10:59:31;;;;;;;6.38;3.33;;;5.00;99.90;;;;;;5032749;28;20057;-76
2020/12/12 11:01:57;;;;;;;7.45;3.97;;;4.90;99.90;;;;;;5014904;28;20028;-76
2020/12/12 11:04:23;;;;;;;8.30;3.60;;;5.00;99.90;;;;;;5032419;28;20025;-76
2020/12/12 11:06:52;;;;;;;12.77;3.72;;;5.20;99.90;;;;;;5032356;28;20032;-78
2020/12/12 11:09:18;;;;;;;23.15;4.50;;;5.30;99.90;;;;;;5034207;28;20026;-76
2020/12/12 11:11:44;;;;;;;6.60;4.10;;;5.50;99.90;;;;;;5016808;28;20101;-77
2020/12/12 11:14:11;;;;;;;8.50;4.55;;;5.40;99.90;;;;;;5048471;22;20069;-74
2020/12/12 11:16:37;;;;;;;10.80;3.60;;;5.40;99.90;;;;;;5052261;28;20021;-74
2020/12/12 11:19:04;;;;;;;3.47;2.60;;;5.40;99.90;;;;;;5052056;28;20033;-74
2020/12/12 11:21:30;;;;;;;15.77;3.38;;;5.60;99.90;;;;;;5052554;28;20070;-74
2020/12/12 11:23:56;;;;;;;8.05;3.30;;;5.70;99.90;;;;;;5051824;28;20021;-74
2020/12/12 11:26:22;;;;;;;5.38;3.15;;;5.80;99.90;;;;;;5051833;28;20032;-74
2020/12/12 11:28:48;;;;;;;5.22;3.00;;;6.00;99.90;;;;;;5051937;28;20395;-74
2020/12/12 11:31:23;;;;;;;5.75;2.47;;;6.30;99.90;;;;;;5052021;28;20032;-75
2020/12/12 11:33:55;;;;;;;4.70;3.05;;;6.40;99.90;;;;;;5055360;28;20028;-74
2020/12/12 11:38:57;;;;;;;3.92;2.25;;;6.30;99.90;;;;;;5057789;28;20491;-74
2020/12/12 11:41:43;;;;;;;12.18;3.65;;;6.50;99.90;;;;;;5051678;28;20020;-75
2020/12/12 11:46:53;;;;;;;7.85;2.85;;;6.80;99.90;;;;;;5033570;28;20376;-74
2020/12/12 11:49:20;;;;;;;6.03;3.00;;;6.80;99.90;;;;;;5051433;28;20029;-74
2020/12/12 11:51:46;;;;;;;4.63;2.88;;;6.90;99.90;;;;;;5033804;28;20052;-75
2020/12/12 11:54:12;;;;;;;6.35;2.78;;;6.90;99.90;;;;;;5051421;28;20080;-74
2020/12/12 11:56:37;;;;;;;4.30;2.45;;;6.90;99.90;;;;;;5051344;28;20067;-74
2020/12/12 11:59:03;;;;;;;3.40;2.25;;;7.00;99.90;;;;;;5032931;28;20025;-74
2020/12/12 12:01:29;;;;;;;3.28;2.15;;;6.70;99.90;;;;;;5033585;28;20033;-74
2020/12/12 12:03:56;;;;;;;4.22;2.75;;;6.60;99.90;;;;;;5033302;28;20021;-74
2020/12/12 12:06:23;;;;;;;3.58;2.25;;;6.40;99.90;;;;;;5051258;28;20048;-74
2020/12/12 12:11:32;;;;;;;3.17;2.45;;;6.00;99.90;;;;;;5051329;28;20037;-74
2020/12/12 12:14:05;;;;;;;2.03;1.75;;;5.90;99.90;;;;;;5050622;28;20056;-74
2020/12/12 12:16:39;;;;;;;2.47;1.73;;;5.60;99.90;;;;;;5033374;28;20068;-74
2020/12/12 12:19:10;;;;;;;9.98;3.08;;;5.50;99.90;;;;;;5032920;28;20118;-74
2020/12/12 12:21:37;;;;;;;8.38;3.08;;;5.60;99.90;;;;;;5050418;28;20076;-74
2020/12/12 12:24:05;;;;;;;5.75;2.63;;;5.90;99.90;;;;;;5050833;28;20017;-74
2020/12/12 12:26:35;;;;;;;5.63;2.50;;;6.00;99.90;;;;;;5033214;28;20025;-74
2020/12/12 12:29:10;;;;;;;7.55;2.17;;;6.10;99.90;;;;;;5051179;28;20025;-74
2020/12/12 12:31:35;;;;;;;5.70;3.00;;;6.20;99.90;;;;;;5051096;28;20099;-74
2020/12/12 12:34:01;;;;;;;4.13;2.38;;;6.30;99.90;;;;;;5050741;28;20035;-74
2020/12/12 12:36:29;;;;;;;3.83;2.17;;;6.30;99.90;;;;;;5016422;28;20041;-74
2020/12/12 12:38:57;;;;;;;3.45;2.50;;;6.40;99.90;;;;;;5050667;28;20112;-74
2020/12/12 12:41:26;;;;;;;6.07;3.15;;;6.40;99.90;;;;;;5032848;28;20087;-74
2020/12/12 12:43:52;;;;;;;2.97;2.00;;;6.40;99.90;;;;;;5032947;28;20055;-74
2020/12/12 12:46:19;;;;;;;4.07;2.65;;;6.50;99.90;;;;;;5050380;28;20036;-74
2020/12/12 12:48:44;;;;;;;4.82;2.97;;;6.50;99.90;;;;;;5033391;28;20033;-74
2020/12/12 12:51:10;;;;;;;3.83;2.53;;;6.50;99.90;;;;;;5050870;28;20079;-74
2020/12/12 12:53:36;;;;;;;5.63;2.58;;;6.50;99.90;;;;;;5051026;28;20405;-74
2020/12/12 12:56:02;;;;;;;5.03;3.08;;;6.50;99.90;;;;;;5032793;28;20028;-74
2020/12/12 12:58:28;;;;;;;12.98;3.95;;;6.60;99.90;;;;;;5050684;28;20081;-74
2020/12/12 13:00:55;;;;;;;10.35;4.35;;;6.60;99.90;;;;;;5032564;28;20104;-74
2020/12/12 13:03:21;;;;;;;14.55;4.60;;;6.60;99.90;;;;;;5050558;28;20029;-74